Time;durP1;ratioP1;P1;durP2;ratioP2;P2;SDS_P1;SDS_P2;PMS_P1;PMS_P2;Temp;Humidity;BMP_temperature;BMP_pressure;BME280_temperature;BME280_humidity;BME280_pressure;Samples;Min_cycle;Max_cycle;Signal;HPM_P1;HPM_P2
2022/05/10 00:01:56;;;;;;;5.55;4.03;;;12.40;24.60;;;;;;5007126;28;34756;-78
2022/05/10 00:04:22;;;;;;;4.72;4.18;;;12.40;24.80;;;;;;5006443;28;34303;-77
2022/05/10 00:06:49;;;;;;;5.18;3.88;;;12.30;24.90;;;;;;4988391;28;34240;-77
2022/05/10 00:09:20;;;;;;;4.80;3.80;;;12.20;25.10;;;;;;4988948;28;34162;-77
2022/05/10 00:11:46;;;;;;;4.22;3.83;;;12.20;25.10;;;;;;4987753;28;35666;-77
2022/05/10 00:14:13;;;;;;;4.40;4.00;;;12.10;25.10;;;;;;5005532;28;34176;-77
2022/05/10 00:16:42;;;;;;;4.40;4.00;;;12.10;25.10;;;;;;4988253;28;34294;-77
2022/05/10 00:19:13;;;;;;;3.95;3.58;;;12.00;25.30;;;;;;4989112;28;34333;-78
2022/05/10 00:21:40;;;;;;;4.20;3.80;;;12.00;26.10;;;;;;4972772;28;36896;-77
2022/05/10 00:24:06;;;;;;;4.05;3.67;;;12.00;25.40;;;;;;5005571;28;34257;-77
2022/05/10 00:26:32;;;;;;;5.90;4.28;;;11.90;25.40;;;;;;4972615;28;34221;-77
2022/05/10 00:29:00;;;;;;;4.38;3.97;;;11.90;25.50;;;;;;5005874;28;34169;-77
2022/05/10 00:31:26;;;;;;;4.53;4.13;;;11.90;25.60;;;;;;5005880;28;34064;-77
2022/05/10 00:33:52;;;;;;;4.70;4.28;;;11.90;25.70;;;;;;4988842;28;34071;-77
2022/05/10 00:36:22;;;;;;;4.20;3.80;;;11.80;25.80;;;;;;4972520;28;34188;-77
2022/05/10 00:38:49;;;;;;;4.15;3.75;;;11.80;26.10;;;;;;4989286;28;34328;-77
2022/05/10 00:41:31;;;;;;;4.63;4.15;;;11.80;26.00;;;;;;4970428;28;36084;-77
2022/05/10 00:44:12;;;;;;;6.15;4.13;;;11.70;27.60;;;;;;4976570;28;34208;-77
2022/05/10 00:46:44;;;;;;;4.60;4.10;;;11.70;27.10;;;;;;4988069;28;34141;-78
2022/05/10 00:49:25;;;;;;;4.63;4.22;;;11.60;26.80;;;;;;4971767;28;34194;-77
2022/05/10 00:52:02;;;;;;;4.53;4.13;;;11.60;29.70;;;;;;4974070;28;36008;-77
2022/05/10 00:54:49;;;;;;;4.95;4.32;;;11.60;28.50;;;;;;5007742;28;34095;-77
2022/05/10 00:57:27;;;;;;;5.13;4.10;;;11.50;28.30;;;;;;4990471;28;34152;-77
2022/05/10 01:00:00;;;;;;;5.00;3.67;;;11.50;28.70;;;;;;4974015;28;34077;-77
2022/05/10 01:02:47;;;;;;;4.72;4.10;;;11.50;27.80;;;;;;4990051;28;36314;-77
2022/05/10 01:05:36;;;;;;;4.65;4.20;;;11.50;30.40;;;;;;4990282;28;34159;-77
2022/05/10 01:08:27;;;;;;;4.97;4.13;;;11.50;29.60;;;;;;4990692;28;34410;-77
2022/05/10 01:11:03;;;;;;;5.07;4.57;;;11.50;28.50;;;;;;4976516;28;34479;-77
2022/05/10 01:13:39;;;;;;;4.47;3.97;;;11.40;28.90;;;;;;4990893;28;34031;-77
2022/05/10 01:16:11;;;;;;;4.70;4.20;;;11.40;28.70;;;;;;4990566;28;34146;-77
2022/05/10 01:18:39;;;;;;;5.53;4.10;;;11.40;28.10;;;;;;5008179;28;34070;-77
2022/05/10 01:21:29;;;;;;;4.00;3.65;;;11.40;27.60;;;;;;4990473;28;34433;-77
2022/05/10 01:24:21;;;;;;;4.60;3.97;;;11.40;30.00;;;;;;4989329;28;35835;-77
2022/05/10 01:27:16;;;;;;;4.05;3.50;;;11.40;30.60;;;;;;5007505;28;34193;-77
2022/05/10 01:29:59;;;;;;;6.95;4.68;;;11.30;30.90;;;;;;4974426;28;34679;-77
2022/05/10 01:35:20;;;;;;;4.47;3.97;;;11.30;28.20;;;;;;4991522;28;34858;-77
2022/05/10 01:37:54;;;;;;;4.90;4.40;;;11.20;27.90;;;;;;4989386;28;34119;-77
2022/05/10 01:40:31;;;;;;;4.43;4.03;;;11.20;27.90;;;;;;4973235;28;34437;-77
2022/05/10 01:43:08;;;;;;;4.60;4.13;;;11.20;28.90;;;;;;4973266;28;34246;-77
2022/05/10 01:45:43;;;;;;;6.97;4.53;;;11.20;28.60;;;;;;4985394;28;35538;-77
2022/05/10 01:48:15;;;;;;;4.38;3.90;;;11.10;28.50;;;;;;4985789;28;34269;-77
2022/05/10 01:51:02;;;;;;;4.60;4.18;;;11.10;28.30;;;;;;4973076;28;34102;-77
2022/05/10 01:53:31;;;;;;;5.07;4.43;;;11.00;29.30;;;;;;4987678;28;34091;-78
2022/05/10 01:56:14;;;;;;;4.38;3.78;;;11.00;28.30;;;;;;4988510;28;36860;-77
2022/05/10 01:58:42;;;;;;;4.47;4.00;;;11.00;30.90;;;;;;4969803;28;34187;-77
2022/05/10 02:01:39;;;;;;;4.80;4.20;;;10.90;28.50;;;;;;4985780;28;34181;-77
2022/05/10 02:04:13;;;;;;;4.53;4.00;;;11.00;31.20;;;;;;4988836;28;34034;-78
2022/05/10 02:06:54;;;;;;;4.53;4.13;;;10.90;29.30;;;;;;4985840;28;34343;-78
2022/05/10 02:09:32;;;;;;;4.20;3.88;;;10.90;29.60;;;;;;5005037;28;34091;-77
2022/05/10 02:12:16;;;;;;;5.32;3.97;;;10.90;29.00;;;;;;4988437;28;34005;-77
2022/05/10 02:15:07;;;;;;;4.45;4.05;;;10.80;28.90;;;;;;4985955;28;34601;-77
2022/05/10 02:17:42;;;;;;;4.45;3.92;;;10.80;30.40;;;;;;4981311;28;36958;-77
2022/05/10 02:20:28;;;;;;;5.50;4.20;;;10.70;29.80;;;;;;4973536;28;34092;-78
2022/05/10 02:23:10;;;;;;;5.15;4.55;;;10.80;32.10;;;;;;4988944;28;34094;-77
2022/05/10 02:25:41;;;;;;;5.28;4.50;;;10.70;31.70;;;;;;4986389;28;34601;-77
2022/05/10 02:30:44;;;;;;;4.65;4.18;;;10.70;29.20;;;;;;5311393;22;33997;-77
2022/05/10 02:33:13;;;;;;;5.60;4.50;;;10.70;29.50;;;;;;5023884;28;34264;-77
2022/05/10 02:35:48;;;;;;;5.20;4.55;;;10.70;29.60;;;;;;4991287;28;34154;-77
2022/05/10 02:38:17;;;;;;;5.15;4.65;;;10.70;30.20;;;;;;4990191;28;35784;-77
2022/05/10 02:40:44;;;;;;;5.38;4.07;;;10.70;29.70;;;;;;4990243;28;34263;-77
2022/05/10 02:43:16;;;;;;;5.05;4.30;;;10.70;29.60;;;;;;5006477;28;34450;-77
2022/05/10 02:45:43;;;;;;;4.70;4.25;;;10.60;30.00;;;;;;4990804;28;34253;-77
2022/05/10 02:48:15;;;;;;;4.88;4.38;;;10.60;29.60;;;;;;5006172;28;35773;-77
2022/05/10 02:50:41;;;;;;;6.85;4.45;;;10.60;30.00;;;;;;5007241;28;34190;-77
2022/05/10 02:53:07;;;;;;;4.65;4.22;;;10.60;29.70;;;;;;4990668;28;34260;-77
2022/05/10 02:55:42;;;;;;;5.68;4.75;;;10.60;29.90;;;;;;5007329;28;34252;-77
2022/05/10 02:58:22;;;;;;;4.82;4.20;;;10.60;30.10;;;;;;5007107;28;35587;-77
2022/05/10 03:00:51;;;;;;;5.55;4.75;;;10.60;30.20;;;;;;4975964;28;34414;-77
2022/05/10 03:03:20;;;;;;;4.90;4.40;;;10.50;29.90;;;;;;4975746;28;34325;-77
2022/05/10 03:05:46;;;;;;;7.55;5.03;;;10.50;30.00;;;;;;4991848;28;34290;-77
2022/05/10 03:08:12;;;;;;;5.10;4.60;;;10.50;30.00;;;;;;5006291;28;35925;-77
2022/05/10 03:10:38;;;;;;;4.97;4.47;;;10.50;29.90;;;;;;4990848;28;34404;-77
2022/05/10 03:13:04;;;;;;;4.97;4.57;;;10.50;30.10;;;;;;4973903;28;34412;-77
2022/05/10 03:15:31;;;;;;;8.55;4.85;;;10.50;30.00;;;;;;5024564;28;34141;-77
2022/05/10 03:17:57;;;;;;;5.10;4.35;;;10.50;30.60;;;;;;5007150;28;34375;-78
2022/05/10 03:20:23;;;;;;;5.18;4.35;;;10.40;30.00;;;;;;5006950;28;34189;-78
2022/05/10 03:22:49;;;;;;;4.85;4.38;;;10.40;30.20;;;;;;5006434;28;34216;-77
2022/05/10 03:25:15;;;;;;;4.90;4.40;;;10.40;30.20;;;;;;5006882;28;34255;-78
2022/05/10 03:27:41;;;;;;;4.97;4.45;;;10.40;30.40;;;;;;5007121;28;35877;-78
2022/05/10 03:30:08;;;;;;;4.72;4.25;;;10.30;30.40;;;;;;5023915;28;34301;-78
2022/05/10 03:32:34;;;;;;;8.07;4.70;;;10.30;30.30;;;;;;4991500;28;34455;-78
2022/05/10 03:35:00;;;;;;;4.95;4.40;;;10.30;30.30;;;;;;4991966;28;34405;-77
2022/05/10 03:37:30;;;;;;;4.35;3.95;;;10.30;30.30;;;;;;4991701;28;35542;-78
2022/05/10 03:39:57;;;;;;;4.95;4.47;;;10.30;30.70;;;;;;5026574;28;34220;-78
2022/05/10 03:42:24;;;;;;;5.70;4.22;;;10.20;30.40;;;;;;5007427;28;34107;-78
2022/05/10 03:44:52;;;;;;;5.60;5.10;;;10.20;30.40;;;;;;5007001;28;34284;-78
2022/05/10 03:47:22;;;;;;;4.93;4.32;;;10.20;30.50;;;;;;5007624;28;35349;-78
2022/05/10 03:49:48;;;;;;;5.18;4.68;;;10.20;30.50;;;;;;5007640;28;34120;-78
2022/05/10 03:52:15;;;;;;;5.38;4.50;;;10.10;30.40;;;;;;5007013;28;34222;-77
2022/05/10 03:54:42;;;;;;;4.90;4.25;;;10.10;30.50;;;;;;5007523;28;34268;-77
2022/05/10 03:57:09;;;;;;;5.20;4.47;;;10.10;30.50;;;;;;4990859;28;35623;-77
2022/05/10 03:59:41;;;;;;;5.38;4.53;;;10.10;30.50;;;;;;5005886;28;33831;-78
2022/05/10 04:02:08;;;;;;;6.50;4.40;;;10.10;30.60;;;;;;5024938;28;34118;-78
2022/05/10 04:04:34;;;;;;;5.28;4.50;;;10.00;30.70;;;;;;5006978;28;34138;-78
2022/05/10 04:07:00;;;;;;;6.47;4.75;;;10.00;30.80;;;;;;5006779;28;35742;-77
2022/05/10 04:09:26;;;;;;;5.30;4.65;;;10.00;30.80;;;;;;4974841;28;34202;-78
2022/05/10 04:11:52;;;;;;;4.97;4.47;;;10.00;30.80;;;;;;4990611;28;34365;-78
2022/05/10 04:14:18;;;;;;;4.55;4.10;;;9.90;30.90;;;;;;5006783;28;34548;-78
2022/05/10 04:16:44;;;;;;;4.53;4.07;;;9.90;31.00;;;;;;5007368;28;36491;-77
2022/05/10 04:19:09;;;;;;;5.00;4.50;;;9.90;31.50;;;;;;4994574;28;34163;-78
2022/05/10 04:21:35;;;;;;;6.03;4.75;;;10.00;31.00;;;;;;5011039;28;34149;-77
2022/05/10 04:24:01;;;;;;;7.05;4.65;;;9.90;31.10;;;;;;5010567;28;34263;-78
2022/05/10 04:26:28;;;;;;;5.78;4.60;;;9.90;31.20;;;;;;5010483;28;36051;-78
2022/05/10 04:28:54;;;;;;;5.13;4.63;;;9.90;31.30;;;;;;5010516;28;34575;-77
2022/05/10 04:31:20;;;;;;;5.97;4.47;;;10.00;31.20;;;;;;5011467;28;34315;-78
2022/05/10 04:33:46;;;;;;;5.05;4.57;;;10.00;31.30;;;;;;5011146;28;34430;-78
2022/05/10 04:36:12;;;;;;;6.63;4.78;;;10.00;31.20;;;;;;5029483;28;35226;-78
2022/05/10 04:38:38;;;;;;;5.13;4.63;;;10.00;31.30;;;;;;5012151;28;34389;-78
2022/05/10 04:43:46;;;;;;;5.40;4.75;;;10.10;31.50;;;;;;5031267;28;34306;-78
2022/05/10 04:46:12;;;;;;;5.78;4.75;;;10.20;31.50;;;;;;5014122;28;34407;-78
2022/05/10 04:48:38;;;;;;;5.47;4.50;;;10.20;31.40;;;;;;5012978;28;34165;-78
2022/05/10 04:51:05;;;;;;;6.55;5.15;;;10.30;31.60;;;;;;5013452;28;34346;-78
2022/05/10 04:53:31;;;;;;;5.45;4.90;;;10.40;31.70;;;;;;5013421;28;34314;-78
2022/05/10 04:55:57;;;;;;;6.15;4.68;;;10.50;31.60;;;;;;5012489;28;35812;-78
2022/05/10 04:58:23;;;;;;;5.90;5.07;;;10.50;31.80;;;;;;5012976;28;34251;-78
2022/05/10 05:00:49;;;;;;;6.55;4.85;;;10.60;31.90;;;;;;5011871;28;34184;-78
2022/05/10 05:03:16;;;;;;;6.10;5.50;;;10.70;31.90;;;;;;5011116;28;34219;-77
2022/05/10 05:05:42;;;;;;;5.47;4.97;;;10.80;31.80;;;;;;5011281;28;36078;-78
2022/05/10 05:08:07;;;;;;;5.57;5.07;;;10.90;31.80;;;;;;5011653;28;34403;-78
2022/05/10 05:10:34;;;;;;;5.85;5.25;;;11.00;31.70;;;;;;5012100;28;34271;-78
2022/05/10 05:13:00;;;;;;;5.68;5.18;;;11.10;31.60;;;;;;5011693;28;34485;-78
2022/05/10 05:15:26;;;;;;;6.30;5.65;;;11.30;31.60;;;;;;5029049;28;34497;-78
2022/05/10 05:17:52;;;;;;;5.95;5.05;;;11.50;31.40;;;;;;4995980;28;34327;-78
2022/05/10 05:20:18;;;;;;;6.30;5.40;;;11.60;31.30;;;;;;5011282;28;34193;-78
2022/05/10 05:22:44;;;;;;;6.00;5.28;;;11.90;31.20;;;;;;5009483;28;34199;-78
2022/05/10 05:25:09;;;;;;;5.93;5.32;;;12.10;30.90;;;;;;4977579;28;36242;-78
2022/05/10 05:27:35;;;;;;;5.72;5.22;;;12.30;30.50;;;;;;5010534;28;34233;-78
2022/05/10 05:30:01;;;;;;;5.50;4.93;;;12.60;30.20;;;;;;5027997;28;34307;-78
2022/05/10 05:32:31;;;;;;;6.68;5.20;;;12.80;29.80;;;;;;4994282;28;34720;-77
2022/05/10 05:34:58;;;;;;;8.40;4.85;;;13.00;29.50;;;;;;5010599;28;34692;-78
2022/05/10 05:40:09;;;;;;;6.05;5.45;;;13.40;29.10;;;;;;5010704;28;34223;-78
2022/05/10 05:42:36;;;;;;;5.40;4.90;;;13.50;29.00;;;;;;5009498;28;34268;-78
2022/05/10 05:45:04;;;;;;;5.18;4.68;;;13.70;28.80;;;;;;5008701;28;35578;-78
2022/05/10 05:47:30;;;;;;;5.97;5.25;;;13.80;28.70;;;;;;4991377;28;34295;-78
2022/05/10 05:49:57;;;;;;;5.03;4.63;;;13.90;28.50;;;;;;5008568;28;34208;-78
2022/05/10 05:52:23;;;;;;;5.70;5.20;;;13.90;28.40;;;;;;4975648;28;34486;-78
2022/05/10 05:54:51;;;;;;;6.18;5.38;;;13.90;28.50;;;;;;5025681;28;34331;-77
2022/05/10 05:57:18;;;;;;;5.60;5.10;;;14.00;28.50;;;;;;5026430;28;34180;-78
2022/05/10 05:59:44;;;;;;;6.85;5.60;;;14.10;28.60;;;;;;5009586;28;34286;-77
2022/05/10 06:02:13;;;;;;;10.68;5.22;;;14.30;28.40;;;;;;5024417;28;34322;-78
2022/05/10 06:04:39;;;;;;;5.68;5.07;;;14.70;28.10;;;;;;4990999;28;35882;-78
2022/05/10 06:07:05;;;;;;;5.82;4.75;;;15.20;27.10;;;;;;5024631;28;34227;-78
2022/05/10 06:09:31;;;;;;;5.53;5.03;;;15.70;26.10;;;;;;5006623;28;34240;-77
2022/05/10 06:11:57;;;;;;;6.43;5.10;;;16.30;24.80;;;;;;5024094;28;34090;-77
2022/05/10 06:14:23;;;;;;;5.32;4.88;;;17.00;23.50;;;;;;5007038;28;35795;-77
2022/05/10 06:16:49;;;;;;;5.82;5.03;;;17.70;22.30;;;;;;5006918;28;34378;-77
2022/05/10 06:19:15;;;;;;;5.55;4.97;;;18.00;21.50;;;;;;4973843;28;34436;-78
2022/05/10 06:21:43;;;;;;;5.38;4.88;;;18.30;21.30;;;;;;5024953;28;34198;-77
2022/05/10 06:24:10;;;;;;;5.00;4.57;;;18.40;20.20;;;;;;5006124;28;35792;-77
2022/05/10 06:26:37;;;;;;;6.22;5.13;;;18.60;20.00;;;;;;5024072;28;34294;-77
2022/05/10 06:29:03;;;;;;;5.43;4.93;;;18.70;19.80;;;;;;5007248;28;34069;-77
2022/05/10 06:31:30;;;;;;;6.03;4.65;;;18.70;19.70;;;;;;5024143;28;34527;-78
2022/05/10 06:33:56;;;;;;;7.70;4.95;;;18.70;19.60;;;;;;4991447;28;35623;-78
2022/05/10 06:36:23;;;;;;;5.05;4.55;;;19.00;19.40;;;;;;5007720;28;34022;-76
2022/05/10 06:38:49;;;;;;;7.18;4.93;;;19.30;19.30;;;;;;4989371;28;34141;-77
2022/05/10 06:41:15;;;;;;;6.00;5.05;;;19.80;19.00;;;;;;5006123;28;34272;-77
2022/05/10 06:43:41;;;;;;;4.80;4.25;;;20.20;18.50;;;;;;4973285;28;35909;-77
2022/05/10 06:46:12;;;;;;;4.95;4.32;;;20.30;18.00;;;;;;4990400;28;34062;-77
2022/05/10 06:48:39;;;;;;;6.18;4.72;;;20.40;17.60;;;;;;5024229;28;34052;-77
2022/05/10 06:51:07;;;;;;;5.95;4.30;;;20.50;17.80;;;;;;5007388;28;34161;-76
2022/05/10 06:53:33;;;;;;;6.72;4.65;;;20.80;17.60;;;;;;4990431;28;35545;-77
2022/05/10 06:55:59;;;;;;;4.90;4.50;;;21.00;17.60;;;;;;5006665;28;34455;-77
2022/05/10 06:58:25;;;;;;;5.28;4.60;;;21.30;17.60;;;;;;5006184;28;34441;-77
2022/05/10 07:00:51;;;;;;;5.22;4.72;;;21.40;17.40;;;;;;5006980;28;34280;-77
2022/05/10 07:03:26;;;;;;;5.10;4.60;;;21.50;17.40;;;;;;5006475;28;35927;-76
2022/05/10 07:05:52;;;;;;;5.68;4.82;;;21.70;16.10;;;;;;5006826;28;34555;-77
2022/05/10 07:08:18;;;;;;;5.30;4.70;;;21.80;16.80;;;;;;5006437;28;34202;-77
2022/05/10 07:10:44;;;;;;;5.90;5.32;;;21.90;16.70;;;;;;5006053;28;34095;-77
2022/05/10 07:13:19;;;;;;;4.93;4.43;;;22.00;16.80;;;;;;5005566;28;35749;-77
2022/05/10 07:15:45;;;;;;;5.55;4.75;;;22.20;16.10;;;;;;4989187;28;34143;-77
2022/05/10 07:18:12;;;;;;;7.68;4.88;;;22.30;16.80;;;;;;5005348;28;34134;-76
2022/05/10 07:20:38;;;;;;;4.97;4.57;;;22.50;16.70;;;;;;5006381;28;34315;-76
2022/05/10 07:23:05;;;;;;;5.32;4.82;;;22.60;16.70;;;;;;5005827;28;36542;-77
2022/05/10 07:25:31;;;;;;;6.20;4.90;;;22.60;16.80;;;;;;4989982;28;34071;-77
2022/05/10 07:27:57;;;;;;;5.60;5.03;;;22.70;16.70;;;;;;4989946;28;34345;-77
2022/05/10 07:30:25;;;;;;;5.05;4.57;;;22.60;16.70;;;;;;5006265;28;34437;-78
2022/05/10 07:32:52;;;;;;;5.30;4.80;;;22.50;16.30;;;;;;5006035;28;34553;-77
2022/05/10 07:36:23;;;;;;;5.78;4.78;;;22.40;16.70;;;;;;4990256;28;34182;-77
2022/05/10 07:38:08;;;;;;;6.15;5.20;;;22.40;16.60;;;;;;5009277;28;34272;-77
2022/05/10 07:40:35;;;;;;;6.70;5.03;;;22.60;16.70;;;;;;5006156;28;34454;-77
2022/05/10 07:43:01;;;;;;;5.57;5.07;;;22.80;16.70;;;;;;5005368;28;36629;-77
2022/05/10 07:45:27;;;;;;;8.43;4.80;;;22.90;16.50;;;;;;5006226;28;34295;-77
2022/05/10 07:47:53;;;;;;;5.28;4.78;;;23.10;16.40;;;;;;5023465;28;34267;-77
2022/05/10 07:50:19;;;;;;;7.93;5.35;;;23.30;16.30;;;;;;4989186;28;34242;-77
2022/05/10 07:52:45;;;;;;;5.10;4.60;;;23.50;16.10;;;;;;4973031;28;35454;-77
2022/05/10 07:55:13;;;;;;;6.38;5.00;;;23.70;15.80;;;;;;5005365;28;34058;-76
2022/05/10 07:57:39;;;;;;;7.55;4.63;;;23.90;15.50;;;;;;5005842;28;34099;-77
2022/05/10 08:00:08;;;;;;;6.20;5.60;;;24.00;15.30;;;;;;5005981;28;34100;-77
2022/05/10 08:02:35;;;;;;;5.80;5.20;;;24.30;15.20;;;;;;5006269;28;35071;-76
2022/05/10 08:05:02;;;;;;;6.30;5.32;;;24.50;15.00;;;;;;5005574;28;34129;-76
2022/05/10 08:07:28;;;;;;;5.70;5.10;;;24.60;14.70;;;;;;5005797;28;34308;-77
2022/05/10 08:09:54;;;;;;;4.95;4.55;;;24.50;14.70;;;;;;5005709;28;34197;-77
2022/05/10 08:12:21;;;;;;;8.43;5.28;;;24.60;14.70;;;;;;4988752;28;35538;-77
2022/05/10 08:14:47;;;;;;;6.05;5.05;;;24.60;14.40;;;;;;5005874;28;34075;-77
2022/05/10 08:17:14;;;;;;;6.80;4.72;;;24.60;14.50;;;;;;5005832;28;34139;-77
2022/05/10 08:19:40;;;;;;;5.40;4.90;;;24.60;14.40;;;;;;4989531;28;34120;-77
2022/05/10 08:22:06;;;;;;;5.40;4.90;;;24.50;14.40;;;;;;5004964;28;35903;-77
2022/05/10 08:24:33;;;;;;;6.43;5.13;;;24.50;14.50;;;;;;5005224;28;34207;-77
2022/05/10 08:26:59;;;;;;;5.70;5.10;;;24.70;14.50;;;;;;5005463;28;34094;-78
2022/05/10 08:29:25;;;;;;;7.75;4.68;;;25.00;14.30;;;;;;5005270;28;34162;-77
2022/05/10 08:31:51;;;;;;;13.52;5.30;;;25.20;14.00;;;;;;5005195;28;35553;-77
2022/05/10 08:34:19;;;;;;;6.03;5.43;;;25.40;13.60;;;;;;4989184;28;34337;-77
2022/05/10 08:36:46;;;;;;;6.75;5.25;;;25.60;13.40;;;;;;5005830;28;34283;-77
2022/05/10 08:39:13;;;;;;;5.50;5.00;;;25.60;13.20;;;;;;5005187;28;34527;-77
2022/05/10 08:41:46;;;;;;;8.55;5.47;;;25.70;13.00;;;;;;5004737;28;36069;-76
2022/05/10 08:44:24;;;;;;;5.75;4.88;;;25.60;12.10;;;;;;5005662;28;34174;-77
2022/05/10 08:46:58;;;;;;;7.63;5.50;;;25.80;12.50;;;;;;5005214;28;34138;-77
2022/05/10 08:49:34;;;;;;;5.45;4.95;;;26.00;12.70;;;;;;5028278;28;34134;-77
2022/05/10 08:52:00;;;;;;;6.13;5.53;;;26.10;11.50;;;;;;5019767;28;34578;-77
2022/05/10 08:54:29;;;;;;;5.22;4.72;;;26.10;12.50;;;;;;5002707;28;34275;-75
2022/05/10 08:56:59;;;;;;;5.60;5.10;;;26.10;12.50;;;;;;5025154;28;34382;-77
2022/05/10 08:59:44;;;;;;;5.78;5.05;;;25.80;12.10;;;;;;5009070;28;34084;-77
2022/05/10 09:02:16;;;;;;;5.75;4.80;;;25.80;10.80;;;;;;5015818;28;36051;-77
2022/05/10 09:05:01;;;;;;;7.90;5.43;;;26.00;11.80;;;;;;5015886;28;34149;-77
2022/05/10 09:07:38;;;;;;;6.15;4.80;;;26.10;11.60;;;;;;5026379;28;34191;-76
2022/05/10 09:10:14;;;;;;;6.55;4.82;;;26.20;12.60;;;;;;5028238;28;34445;-76
2022/05/10 09:12:48;;;;;;;6.63;5.10;;;26.40;11.70;;;;;;5028127;28;35746;-77
2022/05/10 09:15:17;;;;;;;5.03;4.47;;;26.50;11.90;;;;;;5028535;28;34108;-77
2022/05/10 09:17:43;;;;;;;6.32;4.82;;;26.70;11.80;;;;;;5029355;28;34435;-76
2022/05/10 09:20:11;;;;;;;8.30;4.80;;;27.00;12.10;;;;;;5027941;28;34458;-77
2022/05/10 09:23:07;;;;;;;8.90;4.40;;;27.30;10.90;;;;;;5029289;28;35645;-77
2022/05/10 09:25:40;;;;;;;5.43;4.93;;;27.50;7.80;;;;;;5029261;28;33844;-76
2022/05/10 09:28:22;;;;;;;4.72;4.32;;;27.70;9.20;;;;;;5028821;28;34409;-77
2022/05/10 09:36:11;;;;;;;5.30;4.15;;;28.30;10.00;;;;;;5044590;28;34219;-77
2022/05/10 09:38:46;;;;;;;5.65;4.22;;;28.50;9.60;;;;;;5028987;28;34136;-78
2022/05/10 09:41:39;;;;;;;6.65;4.15;;;28.60;7.60;;;;;;5012183;28;34129;-77
2022/05/10 09:44:22;;;;;;;5.72;3.78;;;28.70;5.30;;;;;;5016406;28;36580;-77
2022/05/10 09:46:50;;;;;;;4.95;3.72;;;28.60;6.20;;;;;;5029402;28;34065;-76
2022/05/10 09:49:34;;;;;;;6.55;3.92;;;28.60;8.80;;;;;;5028898;28;34184;-77
2022/05/10 09:52:00;;;;;;;4.93;3.70;;;28.80;6.30;;;;;;5012398;28;34302;-79
2022/05/10 09:54:38;;;;;;;5.20;3.80;;;28.90;8.40;;;;;;5045866;28;34463;-78
2022/05/10 09:57:09;;;;;;;5.30;3.60;;;29.10;6.80;;;;;;5011956;28;34213;-79
2022/05/10 09:59:45;;;;;;;4.78;3.65;;;29.30;7.80;;;;;;5017001;28;34117;-77
2022/05/10 10:02:24;;;;;;;4.43;3.42;;;29.60;4.90;;;;;;5026990;28;34379;-79
2022/05/10 10:04:51;;;;;;;4.97;3.35;;;29.80;7.00;;;;;;5045188;28;34914;-80
2022/05/10 10:07:24;;;;;;;7.18;3.47;;;30.10;7.00;;;;;;4990180;28;34348;-77
2022/05/10 10:09:55;;;;;;;4.97;3.35;;;30.50;4.60;;;;;;5005853;28;34238;-76
2022/05/10 10:12:37;;;;;;;3.50;3.13;;;30.50;5.20;;;;;;5009983;28;34091;-77
2022/05/10 10:15:24;;;;;;;3.90;2.95;;;30.30;2.20;;;;;;5007887;28;35923;-77
2022/05/10 10:18:08;;;;;;;3.20;2.92;;;30.20;2.30;;;;;;4993231;28;34194;-78
2022/05/10 10:20:51;;;;;;;5.40;3.08;;;29.90;1.00;;;;;;5026509;28;34216;-77
2022/05/10 10:23:36;;;;;;;3.30;2.85;;;29.50;2.00;;;;;;5008385;28;34157;-77
2022/05/10 10:26:24;;;;;;;3.78;3.38;;;29.10;1.50;;;;;;5010125;28;35676;-75
2022/05/10 10:28:55;;;;;;;5.85;3.05;;;28.80;1.70;;;;;;5026081;28;34049;-77
2022/05/10 10:31:42;;;;;;;2.88;2.67;;;28.80;5.20;;;;;;4975594;28;34059;-77
2022/05/10 10:34:43;;;;;;;4.70;2.90;;;28.80;3.80;;;;;;4994614;28;34359;-75
2022/05/10 10:37:16;;;;;;;4.50;2.83;;;28.80;3.50;;;;;;4996273;28;35759;-76
2022/05/10 10:40:06;;;;;;;4.25;3.30;;;28.80;5.70;;;;;;4992797;28;34308;-74
2022/05/10 10:42:49;;;;;;;2.80;2.42;;;28.90;1.40;;;;;;5009025;28;34176;-74
2022/05/10 10:45:16;;;;;;;4.55;2.67;;;29.00;4.00;;;;;;5007828;28;34297;-78
2022/05/10 10:47:56;;;;;;;3.70;2.20;;;29.00;3.60;;;;;;5025932;28;34416;-73
2022/05/10 10:50:29;;;;;;;4.15;2.25;;;28.90;1.00;;;;;;5008660;28;34177;-75
2022/05/10 10:52:57;;;;;;;3.95;2.03;;;28.90;1.10;;;;;;4987621;28;34197;-76
2022/05/10 10:55:30;;;;;;;2.22;2.03;;;28.80;4.20;;;;;;5006268;28;34096;-74
2022/05/10 10:58:12;;;;;;;2.22;1.98;;;28.80;3.50;;;;;;4991224;28;35891;-76
2022/05/10 11:01:05;;;;;;;3.67;1.92;;;29.10;1.00;;;;;;5009411;28;34193;-79
2022/05/10 11:03:53;;;;;;;2.30;2.10;;;29.00;1.00;;;;;;5012388;28;34324;-78
2022/05/10 11:06:24;;;;;;;2.28;2.08;;;29.10;1.20;;;;;;5028193;28;34125;-77
2022/05/10 11:09:11;;;;;;;2.17;1.95;;;29.10;1.00;;;;;;5011432;28;36695;-78
2022/05/10 11:12:03;;;;;;;5.05;2.10;;;29.20;1.00;;;;;;5011331;28;34219;-78
2022/05/10 11:14:57;;;;;;;3.63;2.35;;;29.30;1.00;;;;;;5004574;28;34358;-80
2022/05/10 11:17:44;;;;;;;2.20;1.88;;;29.20;1.00;;;;;;5011566;28;34187;-75
2022/05/10 11:20:41;;;;;;;4.70;1.90;;;28.80;1.00;;;;;;5008286;28;35505;-79
2022/05/10 11:23:07;;;;;;;3.30;2.20;;;28.80;1.00;;;;;;5007630;28;34133;-76
2022/05/10 11:26:04;;;;;;;3.08;2.05;;;28.70;2.20;;;;;;5007574;28;34208;-79
2022/05/10 11:28:54;;;;;;;2.67;2.00;;;28.70;1.00;;;;;;5024562;28;34113;-76
2022/05/10 11:31:43;;;;;;;2.97;2.03;;;28.90;1.00;;;;;;4987151;28;35855;-78
2022/05/10 11:34:32;;;;;;;1.85;1.75;;;28.90;1.00;;;;;;5006658;28;34467;-79
2022/05/10 11:37:01;;;;;;;4.82;2.08;;;29.00;1.00;;;;;;5006100;28;34205;-78
2022/05/10 11:40:02;;;;;;;4.55;2.08;;;29.00;1.30;;;;;;4981062;28;34116;-77
2022/05/10 11:42:38;;;;;;;1.98;1.88;;;28.90;1.00;;;;;;4989844;28;35652;-77
2022/05/10 11:45:21;;;;;;;4.47;2.25;;;29.10;1.00;;;;;;4975852;28;34188;-77
2022/05/10 11:48:26;;;;;;;2.67;1.92;;;29.20;1.00;;;;;;5007303;28;34395;-77
2022/05/10 11:54:33;;;;;;;4.68;2.22;;;29.10;1.00;;;;;;5025200;28;34122;-77
2022/05/10 11:57:00;;;;;;;2.92;2.13;;;28.90;1.00;;;;;;5011378;28;34066;-76
2022/05/10 11:59:31;;;;;;;2.20;2.00;;;28.80;1.10;;;;;;4991344;28;34153;-77
2022/05/10 12:01:58;;;;;;;2.13;1.88;;;28.50;1.00;;;;;;5026571;28;34207;-77
2022/05/10 12:04:41;;;;;;;6.40;2.70;;;28.40;1.30;;;;;;4991777;28;34442;-76
2022/05/10 12:07:27;;;;;;;2.20;2.00;;;28.20;1.00;;;;;;5007161;28;34114;-76
2022/05/10 12:10:03;;;;;;;2.85;1.90;;;28.20;1.00;;;;;;5015443;28;34096;-77
2022/05/10 12:13:09;;;;;;;1.98;1.73;;;28.10;1.00;;;;;;4988924;28;34586;-77
2022/05/10 12:21:21;;;;;;;3.50;1.73;;;28.10;1.00;;;;;;4994519;28;34304;-76
2022/05/10 12:24:11;;;;;;;2.08;1.80;;;28.30;1.00;;;;;;5007396;28;34367;-77
2022/05/10 12:26:49;;;;;;;3.58;2.10;;;28.50;1.00;;;;;;5008660;28;36127;-76
2022/05/10 12:29:52;;;;;;;4.32;1.80;;;28.70;1.00;;;;;;5025630;28;34223;-76
2022/05/10 12:32:39;;;;;;;3.03;1.88;;;28.90;1.00;;;;;;4991840;28;34242;-76
2022/05/10 12:35:10;;;;;;;2.03;1.85;;;29.00;1.00;;;;;;4969480;28;34432;-76
2022/05/10 12:37:48;;;;;;;1.90;1.80;;;29.10;1.00;;;;;;4946411;28;35945;-77
2022/05/10 12:40:20;;;;;;;1.77;1.67;;;29.10;1.00;;;;;;5008264;28;34133;-75
2022/05/10 12:43:17;;;;;;;3.15;2.10;;;29.10;1.00;;;;;;4959153;28;34373;-77
2022/05/10 12:46:00;;;;;;;2.03;1.83;;;29.10;1.00;;;;;;4971248;28;34381;-77
2022/05/10 12:48:46;;;;;;;4.25;2.00;;;28.80;1.00;;;;;;4975449;28;35881;-77
2022/05/10 12:51:43;;;;;;;2.00;1.90;;;28.60;1.00;;;;;;4990042;28;34221;-77
2022/05/10 12:54:17;;;;;;;1.92;1.83;;;28.60;1.00;;;;;;5008573;28;34148;-76
2022/05/10 12:57:09;;;;;;;2.85;1.90;;;28.50;1.00;;;;;;4988538;28;34083;-75
2022/05/10 12:59:49;;;;;;;2.95;2.10;;;28.40;1.00;;;;;;4987752;28;34245;-76
2022/05/10 13:02:16;;;;;;;1.90;1.60;;;28.40;1.00;;;;;;4982144;28;34249;-76
2022/05/10 13:04:50;;;;;;;2.13;1.98;;;28.50;1.00;;;;;;4988874;28;34096;-76
2022/05/10 13:07:48;;;;;;;4.40;1.90;;;28.80;1.00;;;;;;4990115;28;34156;-76
2022/05/10 13:10:20;;;;;;;2.22;1.90;;;29.00;1.00;;;;;;4968981;28;35649;-80
2022/05/10 13:12:53;;;;;;;3.33;2.17;;;29.00;1.00;;;;;;4955910;28;34147;-77
2022/05/10 13:15:21;;;;;;;2.50;2.25;;;29.00;1.00;;;;;;4969638;28;34276;-77
2022/05/10 13:17:51;;;;;;;2.95;2.20;;;28.70;1.00;;;;;;4992922;28;34190;-77
2022/05/10 13:20:22;;;;;;;2.20;2.08;;;28.70;1.00;;;;;;4957864;28;36902;-77
2022/05/10 13:22:55;;;;;;;2.92;2.03;;;28.70;1.00;;;;;;4983007;28;34376;-76
2022/05/10 13:25:39;;;;;;;2.55;1.90;;;28.60;1.00;;;;;;4971897;28;33628;-75
2022/05/10 13:28:17;;;;;;;2.30;2.10;;;28.50;1.00;;;;;;4971999;28;34336;-75
2022/05/10 13:30:47;;;;;;;2.38;2.17;;;28.40;1.00;;;;;;4996065;28;35941;-74
2022/05/10 13:33:30;;;;;;;2.25;1.85;;;28.30;1.00;;;;;;4977934;28;34318;-77
2022/05/10 13:36:00;;;;;;;2.30;2.10;;;28.20;1.00;;;;;;5028437;28;34294;-76
2022/05/10 13:38:38;;;;;;;2.58;2.00;;;28.30;1.10;;;;;;5010422;28;34477;-78
2022/05/10 13:41:11;;;;;;;10.90;2.00;;;28.40;1.00;;;;;;4990901;28;35921;-76
2022/05/10 13:43:46;;;;;;;2.20;2.00;;;28.40;1.00;;;;;;4990137;28;34381;-77
2022/05/10 13:46:18;;;;;;;4.07;1.70;;;28.60;1.00;;;;;;4990556;28;34060;-76